sensor_id;sensor_type;location;lat;lon;timestamp;pressure;altitude;pressure_sealevel;temperature;humidity
24892;BME280;12954;50.688;10.908;2023-04-19T00:02:16;96453.91;;;6.31;75.04
24892;BME280;12954;50.688;10.908;2023-04-19T00:04:46;96462.41;;;6.28;75.59
24892;BME280;12954;50.688;10.908;2023-04-19T00:07:15;96452.88;;;6.32;75.16
24892;BME280;12954;50.688;10.908;2023-04-19T00:09:44;96452.41;;;6.35;75.14
24892;BME280;12954;50.688;10.908;2023-04-19T00:12:12;96417.53;;;6.12;75.59
24892;BME280;12954;50.688;10.908;2023-04-19T00:14:41;96445.97;;;6.36;74.72
24892;BME280;12954;50.688;10.908;2023-04-19T00:17:09;96443.53;;;6.23;75.71
24892;BME280;12954;50.688;10.908;2023-04-19T00:19:39;96442.84;;;6.39;74.94
24892;BME280;12954;50.688;10.908;2023-04-19T00:22:08;96203.06;;;4.79;74.60
24892;BME280;12954;50.688;10.908;2023-04-19T00:24:37;96438.53;;;6.15;75.77
24892;BME280;12954;50.688;10.908;2023-04-19T00:27:06;96448.31;;;6.21;75.66
24892;BME280;12954;50.688;10.908;2023-04-19T00:29:34;96299.59;;;5.42;75.36
24892;BME280;12954;50.688;10.908;2023-04-19T00:32:02;96441.69;;;6.35;74.95
24892;BME280;12954;50.688;10.908;2023-04-19T00:34:31;96435.75;;;6.33;74.83
24892;BME280;12954;50.688;10.908;2023-04-19T00:37:01;96404.28;;;6.17;74.32
24892;BME280;12954;50.688;10.908;2023-04-19T00:39:31;96426.91;;;6.44;73.79
24892;BME280;12954;50.688;10.908;2023-04-19T00:41:59;96432.94;;;6.28;74.50
24892;BME280;12954;50.688;10.908;2023-04-19T00:44:28;96435.50;;;6.23;74.98
24892;BME280;12954;50.688;10.908;2023-04-19T00:46:56;96429.91;;;6.36;74.33
24892;BME280;12954;50.688;10.908;2023-04-19T00:49:25;96435.97;;;6.32;74.36
24892;BME280;12954;50.688;10.908;2023-04-19T00:51:53;96428.75;;;6.32;74.33
24892;BME280;12954;50.688;10.908;2023-04-19T00:54:23;96427.13;;;6.31;74.25
24892;BME280;12954;50.688;10.908;2023-04-19T00:56:52;96422.56;;;6.20;75.13
24892;BME280;12954;50.688;10.908;2023-04-19T00:59:21;96181.88;;;4.78;73.42
24892;BME280;12954;50.688;10.908;2023-04-19T01:01:49;96420.72;;;6.44;72.99
24892;BME280;12954;50.688;10.908;2023-04-19T01:04:18;96418.84;;;6.33;73.12
24892;BME280;12954;50.688;10.908;2023-04-19T01:06:49;96426.19;;;6.26;73.37
24892;BME280;12954;50.688;10.908;2023-04-19T01:09:18;96417.97;;;6.09;73.86
24892;BME280;12954;50.688;10.908;2023-04-19T01:11:49;96414.59;;;6.02;74.38
24892;BME280;12954;50.688;10.908;2023-04-19T01:14:17;96421.81;;;6.01;74.51
24892;BME280;12954;50.688;10.908;2023-04-19T01:16:46;96414.25;;;6.10;73.77
24892;BME280;12954;50.688;10.908;2023-04-19T01:19:15;96405.97;;;6.00;73.68
24892;BME280;12954;50.688;10.908;2023-04-19T01:21:44;96389.19;;;5.93;73.63
24892;BME280;12954;50.688;10.908;2023-04-19T01:24:14;96419.94;;;6.02;73.83
24892;BME280;12954;50.688;10.908;2023-04-19T01:26:43;96415.66;;;6.01;73.89
24892;BME280;12954;50.688;10.908;2023-04-19T01:29:11;96420.00;;;6.13;72.60
24892;BME280;12954;50.688;10.908;2023-04-19T01:31:40;96416.69;;;6.00;73.22
24892;BME280;12954;50.688;10.908;2023-04-19T01:34:08;96355.97;;;5.59;73.51
24892;BME280;12954;50.688;10.908;2023-04-19T01:36:37;96408.66;;;6.00;73.34
24892;BME280;12954;50.688;10.908;2023-04-19T01:39:05;96399.31;;;5.91;73.19
24892;BME280;12954;50.688;10.908;2023-04-19T01:41:35;96385.34;;;5.89;72.64
24892;BME280;12954;50.688;10.908;2023-04-19T01:44:05;96410.28;;;6.01;72.67
24892;BME280;12954;50.688;10.908;2023-04-19T01:46:33;96412.38;;;5.99;72.54
24892;BME280;12954;50.688;10.908;2023-04-19T01:49:02;96405.84;;;5.95;72.65
24892;BME280;12954;50.688;10.908;2023-04-19T01:51:30;96336.03;;;5.55;72.15
24892;BME280;12954;50.688;10.908;2023-04-19T01:53:59;96407.34;;;5.91;72.21
24892;BME280;12954;50.688;10.908;2023-04-19T01:56:28;96407.47;;;5.96;71.77
24892;BME280;12954;50.688;10.908;2023-04-19T01:58:58;96362.34;;;5.58;72.03
24892;BME280;12954;50.688;10.908;2023-04-19T02:01:26;96403.94;;;5.84;72.19
24892;BME280;12954;50.688;10.908;2023-04-19T02:03:55;96387.75;;;5.67;72.50
24892;BME280;12954;50.688;10.908;2023-04-19T02:06:24;96385.44;;;5.71;72.23
24892;BME280;12954;50.688;10.908;2023-04-19T02:08:53;96400.25;;;5.85;72.18
24892;BME280;12954;50.688;10.908;2023-04-19T02:11:22;96404.00;;;6.07;70.42
24892;BME280;12954;50.688;10.908;2023-04-19T02:13:50;96402.13;;;5.96;70.14
24892;BME280;12954;50.688;10.908;2023-04-19T02:16:20;96355.03;;;5.53;70.72
24892;BME280;12954;50.688;10.908;2023-04-19T02:18:48;96359.19;;;5.49;71.19
24892;BME280;12954;50.688;10.908;2023-04-19T02:21:17;96371.78;;;5.61;71.38
24892;BME280;12954;50.688;10.908;2023-04-19T02:23:46;96391.00;;;5.69;71.62
24892;BME280;12954;50.688;10.908;2023-04-19T02:26:14;96386.72;;;5.68;71.40
24892;BME280;12954;50.688;10.908;2023-04-19T02:28:43;96382.19;;;5.69;71.53
24892;BME280;12954;50.688;10.908;2023-04-19T02:31:11;96384.03;;;5.68;71.46
24892;BME280;12954;50.688;10.908;2023-04-19T02:33:42;96379.63;;;5.74;71.32
24892;BME280;12954;50.688;10.908;2023-04-19T02:36:12;96379.84;;;5.72;71.31
24892;BME280;12954;50.688;10.908;2023-04-19T02:38:42;96383.13;;;5.74;71.47
24892;BME280;12954;50.688;10.908;2023-04-19T02:41:10;96379.72;;;5.79;71.08
24892;BME280;12954;50.688;10.908;2023-04-19T02:43:39;96321.81;;;5.43;71.04
24892;BME280;12954;50.688;10.908;2023-04-19T02:46:08;96374.00;;;5.75;70.93
24892;BME280;12954;50.688;10.908;2023-04-19T02:48:36;96337.78;;;5.49;71.33
24892;BME280;12954;50.688;10.908;2023-04-19T02:51:06;96375.06;;;5.63;71.21
24892;BME280;12954;50.688;10.908;2023-04-19T02:53:35;96377.94;;;5.61;71.11
24892;BME280;12954;50.688;10.908;2023-04-19T02:56:03;96375.84;;;5.63;71.14
24892;BME280;12954;50.688;10.908;2023-04-19T02:58:32;96374.69;;;5.59;71.10
24892;BME280;12954;50.688;10.908;2023-04-19T03:01:00;96331.81;;;5.36;71.00
24892;BME280;12954;50.688;10.908;2023-04-19T03:03:28;96368.06;;;5.62;70.81
24892;BME280;12954;50.688;10.908;2023-04-19T03:05:57;96369.09;;;5.61;70.45
24892;BME280;12954;50.688;10.908;2023-04-19T03:08:27;96373.50;;;5.55;70.49
24892;BME280;12954;50.688;10.908;2023-04-19T03:10:55;96195.00;;;4.38;70.31
24892;BME280;12954;50.688;10.908;2023-04-19T03:13:24;96369.97;;;5.43;70.82
24892;BME280;12954;50.688;10.908;2023-04-19T03:15:52;96357.38;;;5.32;70.45
24892;BME280;12954;50.688;10.908;2023-04-19T03:18:21;96373.47;;;5.43;69.97
24892;BME280;12954;50.688;10.908;2023-04-19T03:20:50;96367.06;;;5.33;70.55
24892;BME280;12954;50.688;10.908;2023-04-19T03:23:18;96370.56;;;5.33;70.04
24892;BME280;12954;50.688;10.908;2023-04-19T03:25:48;96372.50;;;5.26;70.13
24892;BME280;12954;50.688;10.908;2023-04-19T03:28:17;96311.94;;;4.84;70.02
24892;BME280;12954;50.688;10.908;2023-04-19T03:30:45;96356.97;;;5.17;70.24
24892;BME280;12954;50.688;10.908;2023-04-19T03:33:14;96358.81;;;5.16;70.25
24892;BME280;12954;50.688;10.908;2023-04-19T03:35:42;96357.88;;;5.11;70.32
24892;BME280;12954;50.688;10.908;2023-04-19T03:38:11;96337.63;;;5.03;69.75
24892;BME280;12954;50.688;10.908;2023-04-19T03:40:39;96352.78;;;5.09;70.21
24892;BME280;12954;50.688;10.908;2023-04-19T03:43:09;96352.78;;;5.09;69.90
24892;BME280;12954;50.688;10.908;2023-04-19T03:45:37;96346.34;;;5.10;70.04
24892;BME280;12954;50.688;10.908;2023-04-19T03:48:06;96244.47;;;4.59;69.30
24892;BME280;12954;50.688;10.908;2023-04-19T03:50:34;96344.28;;;5.12;69.45
24892;BME280;12954;50.688;10.908;2023-04-19T03:53:03;96341.47;;;5.07;69.64
24892;BME280;12954;50.688;10.908;2023-04-19T03:55:32;96344.13;;;5.07;69.42
24892;BME280;12954;50.688;10.908;2023-04-19T03:58:00;96345.06;;;5.01;69.53
24892;BME280;12954;50.688;10.908;2023-04-19T04:00:30;96323.09;;;4.81;69.19
24892;BME280;12954;50.688;10.908;2023-04-19T04:02:58;96354.44;;;4.92;69.13
24892;BME280;12954;50.688;10.908;2023-04-19T04:05:27;96355.34;;;4.86;69.28
24892;BME280;12954;50.688;10.908;2023-04-19T04:07:55;96349.75;;;4.87;69.02
24892;BME280;12954;50.688;10.908;2023-04-19T04:10:24;96348.22;;;4.80;69.22
24892;BME280;12954;50.688;10.908;2023-04-19T04:12:52;96347.03;;;4.76;69.25
24892;BME280;12954;50.688;10.908;2023-04-19T04:15:21;96347.84;;;4.76;69.47
24892;BME280;12954;50.688;10.908;2023-04-19T04:17:51;96351.19;;;4.72;69.50
24892;BME280;12954;50.688;10.908;2023-04-19T04:20:19;96356.53;;;4.72;69.46
24892;BME280;12954;50.688;10.908;2023-04-19T04:22:48;96343.75;;;4.74;69.50
24892;BME280;12954;50.688;10.908;2023-04-19T04:25:16;96344.41;;;4.69;69.42
24892;BME280;12954;50.688;10.908;2023-04-19T04:27:49;96354.91;;;4.71;69.44
24892;BME280;12954;50.688;10.908;2023-04-19T04:30:18;96312.66;;;4.43;69.44
24892;BME280;12954;50.688;10.908;2023-04-19T04:32:46;96347.47;;;4.73;69.41
24892;BME280;12954;50.688;10.908;2023-04-19T04:35:18;96349.25;;;4.79;69.26
24892;BME280;12954;50.688;10.908;2023-04-19T04:37:47;96343.31;;;4.77;69.08
24892;BME280;12954;50.688;10.908;2023-04-19T04:40:15;96348.06;;;4.75;68.37
24892;BME280;12954;50.688;10.908;2023-04-19T04:42:44;96333.31;;;4.54;68.58
24892;BME280;12954;50.688;10.908;2023-04-19T04:45:12;96340.22;;;4.62;68.42
24892;BME280;12954;50.688;10.908;2023-04-19T04:47:44;96346.38;;;4.62;68.55
24892;BME280;12954;50.688;10.908;2023-04-19T04:50:13;96345.56;;;4.62;68.47
24892;BME280;12954;50.688;10.908;2023-04-19T04:52:43;96338.19;;;4.57;68.26
24892;BME280;12954;50.688;10.908;2023-04-19T04:55:11;96344.72;;;4.61;68.12
24892;BME280;12954;50.688;10.908;2023-04-19T04:57:40;96331.81;;;4.58;67.45
24892;BME280;12954;50.688;10.908;2023-04-19T05:00:09;96309.94;;;4.31;67.41
24892;BME280;12954;50.688;10.908;2023-04-19T05:02:38;96336.72;;;4.43;67.52
24892;BME280;12954;50.688;10.908;2023-04-19T05:05:07;96339.03;;;4.39;67.44
24892;BME280;12954;50.688;10.908;2023-04-19T05:07:37;96334.34;;;4.35;67.30
24892;BME280;12954;50.688;10.908;2023-04-19T05:10:08;96282.91;;;4.03;66.75
24892;BME280;12954;50.688;10.908;2023-04-19T05:12:36;96356.41;;;4.24;66.41
24892;BME280;12954;50.688;10.908;2023-04-19T05:15:06;96320.75;;;3.94;65.86
24892;BME280;12954;50.688;10.908;2023-04-19T05:17:35;96342.13;;;3.94;66.15
24892;BME280;12954;50.688;10.908;2023-04-19T05:20:04;96335.00;;;3.87;66.43
24892;BME280;12954;50.688;10.908;2023-04-19T05:22:32;96333.88;;;3.77;66.56
24892;BME280;12954;50.688;10.908;2023-04-19T05:25:01;96344.38;;;3.72;66.73
24892;BME280;12954;50.688;10.908;2023-04-19T05:27:31;96336.03;;;3.62;66.41
24892;BME280;12954;50.688;10.908;2023-04-19T05:29:59;96309.56;;;3.60;66.03
24892;BME280;12954;50.688;10.908;2023-04-19T05:32:27;96344.03;;;3.62;66.40
24892;BME280;12954;50.688;10.908;2023-04-19T05:34:56;96343.31;;;3.73;66.54
24892;BME280;12954;50.688;10.908;2023-04-19T05:37:24;96345.56;;;3.76;66.02
24892;BME280;12954;50.688;10.908;2023-04-19T05:39:52;96342.50;;;3.72;65.96
24892;BME280;12954;50.688;10.908;2023-04-19T05:42:21;96337.72;;;3.81;66.18
24892;BME280;12954;50.688;10.908;2023-04-19T05:44:50;96329.69;;;3.81;65.76
24892;BME280;12954;50.688;10.908;2023-04-19T05:47:19;96333.19;;;3.81;65.82
24892;BME280;12954;50.688;10.908;2023-04-19T05:49:47;96222.53;;;3.16;65.73
24892;BME280;12954;50.688;10.908;2023-04-19T05:52:16;96323.94;;;3.84;65.95
24892;BME280;12954;50.688;10.908;2023-04-19T05:54:44;96331.94;;;3.84;65.33
24892;BME280;12954;50.688;10.908;2023-04-19T05:57:12;96314.78;;;3.73;65.65
24892;BME280;12954;50.688;10.908;2023-04-19T05:59:41;96309.69;;;3.72;65.84
24892;BME280;12954;50.688;10.908;2023-04-19T06:02:11;96242.50;;;3.32;65.15
24892;BME280;12954;50.688;10.908;2023-04-19T06:04:39;96316.44;;;3.74;65.10
24892;BME280;12954;50.688;10.908;2023-04-19T06:07:08;96312.38;;;3.72;65.19
24892;BME280;12954;50.688;10.908;2023-04-19T06:09:56;96260.22;;;3.51;64.88
24892;BME280;12954;50.688;10.908;2023-04-19T06:12:25;96304.94;;;3.74;64.84
24892;BME280;12954;50.688;10.908;2023-04-19T06:14:53;96315.50;;;3.62;65.36
24892;BME280;12954;50.688;10.908;2023-04-19T06:17:23;96310.66;;;3.53;65.44
24892;BME280;12954;50.688;10.908;2023-04-19T06:19:53;96295.38;;;3.42;65.10
24892;BME280;12954;50.688;10.908;2023-04-19T06:22:21;96322.16;;;3.53;65.27
24892;BME280;12954;50.688;10.908;2023-04-19T06:24:49;96333.03;;;3.52;65.46
24892;BME280;12954;50.688;10.908;2023-04-19T06:27:18;96258.38;;;2.96;65.54
24892;BME280;12954;50.688;10.908;2023-04-19T06:29:46;96328.94;;;3.49;65.41
24892;BME280;12954;50.688;10.908;2023-04-19T06:32:17;96298.19;;;3.22;65.46
24892;BME280;12954;50.688;10.908;2023-04-19T06:34:47;96327.38;;;3.42;64.85
24892;BME280;12954;50.688;10.908;2023-04-19T06:37:15;96330.97;;;3.54;64.51
24892;BME280;12954;50.688;10.908;2023-04-19T06:39:44;96337.59;;;3.45;64.56
24892;BME280;12954;50.688;10.908;2023-04-19T06:42:12;96317.41;;;3.30;65.07
24892;BME280;12954;50.688;10.908;2023-04-19T06:44:41;96273.25;;;3.10;64.60
24892;BME280;12954;50.688;10.908;2023-04-19T06:47:09;96326.78;;;3.40;64.88
24892;BME280;12954;50.688;10.908;2023-04-19T06:49:38;96327.38;;;3.42;65.03
24892;BME280;12954;50.688;10.908;2023-04-19T06:52:08;96330.19;;;3.47;64.53
24892;BME280;12954;50.688;10.908;2023-04-19T06:54:36;96292.19;;;3.26;64.58
24892;BME280;12954;50.688;10.908;2023-04-19T06:57:05;96294.50;;;3.16;64.85
24892;BME280;12954;50.688;10.908;2023-04-19T06:59:33;96290.19;;;3.22;64.77
24892;BME280;12954;50.688;10.908;2023-04-19T07:02:05;96287.34;;;3.17;64.31
24892;BME280;12954;50.688;10.908;2023-04-19T07:04:34;96321.81;;;3.43;64.28
24892;BME280;12954;50.688;10.908;2023-04-19T07:07:03;96318.59;;;3.34;64.40
24892;BME280;12954;50.688;10.908;2023-04-19T07:09:33;96325.28;;;3.44;64.57
24892;BME280;12954;50.688;10.908;2023-04-19T07:12:02;96314.47;;;3.39;64.54
24892;BME280;12954;50.688;10.908;2023-04-19T07:14:30;96327.34;;;3.48;64.55
24892;BME280;12954;50.688;10.908;2023-04-19T07:16:59;96325.22;;;3.57;64.42
24892;BME280;12954;50.688;10.908;2023-04-19T07:19:28;96320.19;;;3.67;64.34
24892;BME280;12954;50.688;10.908;2023-04-19T07:21:57;96322.13;;;3.78;64.09
24892;BME280;12954;50.688;10.908;2023-04-19T07:24:25;96307.75;;;3.79;63.90
24892;BME280;12954;50.688;10.908;2023-04-19T07:26:57;96322.63;;;3.93;63.54
24892;BME280;12954;50.688;10.908;2023-04-19T07:29:25;96325.16;;;4.06;63.32
24892;BME280;12954;50.688;10.908;2023-04-19T07:31:53;96303.56;;;3.89;63.18
24892;BME280;12954;50.688;10.908;2023-04-19T07:34:22;96330.00;;;4.16;62.77
24892;BME280;12954;50.688;10.908;2023-04-19T07:36:50;96330.88;;;4.10;62.69
24892;BME280;12954;50.688;10.908;2023-04-19T07:39:18;96331.63;;;4.17;62.49
24892;BME280;12954;50.688;10.908;2023-04-19T07:41:47;96317.31;;;4.11;61.79
24892;BME280;12954;50.688;10.908;2023-04-19T07:44:17;96341.78;;;4.33;61.31
24892;BME280;12954;50.688;10.908;2023-04-19T07:46:45;96347.94;;;4.33;60.61
24892;BME280;12954;50.688;10.908;2023-04-19T07:49:15;96313.91;;;4.22;58.15
24892;BME280;12954;50.688;10.908;2023-04-19T07:51:43;96333.81;;;4.02;58.84
24892;BME280;12954;50.688;10.908;2023-04-19T07:54:11;96339.84;;;3.97;60.17
24892;BME280;12954;50.688;10.908;2023-04-19T07:56:42;96337.50;;;4.07;60.39
24892;BME280;12954;50.688;10.908;2023-04-19T07:59:10;96314.25;;;3.89;60.83
24892;BME280;12954;50.688;10.908;2023-04-19T08:01:40;96309.16;;;4.24;58.77
24892;BME280;12954;50.688;10.908;2023-04-19T08:04:09;96246.09;;;3.69;59.00
24892;BME280;12954;50.688;10.908;2023-04-19T08:06:38;96321.47;;;4.25;58.63
24892;BME280;12954;50.688;10.908;2023-04-19T08:09:06;96269.22;;;3.93;58.35
24892;BME280;12954;50.688;10.908;2023-04-19T08:11:34;96318.13;;;4.12;58.91
24892;BME280;12954;50.688;10.908;2023-04-19T08:14:03;96316.88;;;4.14;59.12
24892;BME280;12954;50.688;10.908;2023-04-19T08:16:49;96311.47;;;4.21;59.31
24892;BME280;12954;50.688;10.908;2023-04-19T08:19:20;96308.56;;;4.22;59.12
24892;BME280;12954;50.688;10.908;2023-04-19T08:21:49;96307.75;;;4.22;58.89
24892;BME280;12954;50.688;10.908;2023-04-19T08:24:17;96284.97;;;4.19;58.14
24892;BME280;12954;50.688;10.908;2023-04-19T08:26:45;96304.38;;;4.33;57.90
24892;BME280;12954;50.688;10.908;2023-04-19T08:29:19;96297.53;;;4.55;55.42
24892;BME280;12954;50.688;10.908;2023-04-19T08:31:50;96267.03;;;4.26;54.76
24892;BME280;12954;50.688;10.908;2023-04-19T08:34:19;96295.41;;;4.27;55.50
24892;BME280;12954;50.688;10.908;2023-04-19T08:36:47;96311.44;;;4.27;55.64
24892;BME280;12954;50.688;10.908;2023-04-19T08:39:29;96304.22;;;4.46;53.40
24892;BME280;12954;50.688;10.908;2023-04-19T08:42:02;96309.56;;;4.46;52.44
24892;BME280;12954;50.688;10.908;2023-04-19T08:44:44;96306.81;;;4.34;52.54
24892;BME280;12954;50.688;10.908;2023-04-19T08:47:18;96307.94;;;4.45;51.09
24892;BME280;12954;50.688;10.908;2023-04-19T08:49:59;96255.16;;;3.86;53.16
24892;BME280;12954;50.688;10.908;2023-04-19T08:52:43;96296.47;;;4.20;54.02
24892;BME280;12954;50.688;10.908;2023-04-19T08:55:23;96297.91;;;4.59;52.77
24892;BME280;12954;50.688;10.908;2023-04-19T08:57:51;96297.75;;;4.72;53.03
24892;BME280;12954;50.688;10.908;2023-04-19T09:00:20;96292.97;;;4.74;52.94
24892;BME280;12954;50.688;10.908;2023-04-19T09:02:51;96285.41;;;4.71;53.93
24892;BME280;12954;50.688;10.908;2023-04-19T09:05:21;96280.53;;;4.97;52.22
24892;BME280;12954;50.688;10.908;2023-04-19T09:07:50;96280.91;;;5.01;51.24
24892;BME280;12954;50.688;10.908;2023-04-19T09:10:19;96275.34;;;4.84;52.42
24892;BME280;12954;50.688;10.908;2023-04-19T09:12:59;96244.00;;;4.91;51.16
24892;BME280;12954;50.688;10.908;2023-04-19T09:15:36;96246.19;;;4.83;51.33
24892;BME280;12954;50.688;10.908;2023-04-19T09:18:07;96273.00;;;5.06;51.25
24892;BME280;12954;50.688;10.908;2023-04-19T09:20:37;96261.50;;;5.17;50.12
24892;BME280;12954;50.688;10.908;2023-04-19T09:23:07;96263.38;;;5.17;48.93
24892;BME280;12954;50.688;10.908;2023-04-19T09:25:38;96258.00;;;5.17;49.07
24892;BME280;12954;50.688;10.908;2023-04-19T09:28:27;96271.41;;;5.28;46.80
24892;BME280;12954;50.688;10.908;2023-04-19T09:30:57;96261.13;;;5.02;48.42
24892;BME280;12954;50.688;10.908;2023-04-19T09:33:42;96263.25;;;5.12;48.85
24892;BME280;12954;50.688;10.908;2023-04-19T09:36:25;96215.78;;;5.07;48.12
24892;BME280;12954;50.688;10.908;2023-04-19T09:38:54;96255.75;;;5.43;48.13
24892;BME280;12954;50.688;10.908;2023-04-19T09:41:22;96259.25;;;5.44;47.97
24892;BME280;12954;50.688;10.908;2023-04-19T09:43:51;96258.31;;;5.50;48.33
24892;BME280;12954;50.688;10.908;2023-04-19T09:46:31;96249.25;;;5.63;48.85
24892;BME280;12954;50.688;10.908;2023-04-19T09:49:18;96259.59;;;5.94;46.23
24892;BME280;12954;50.688;10.908;2023-04-19T09:52:08;96150.34;;;5.33;43.63
24892;BME280;12954;50.688;10.908;2023-04-19T09:54:38;96249.59;;;5.78;43.22
24892;BME280;12954;50.688;10.908;2023-04-19T09:57:07;96183.59;;;5.37;42.95
24892;BME280;12954;50.688;10.908;2023-04-19T09:59:35;96246.34;;;5.64;44.41
24892;BME280;12954;50.688;10.908;2023-04-19T10:02:04;96240.97;;;5.76;44.72
24892;BME280;12954;50.688;10.908;2023-04-19T10:04:35;96229.69;;;5.85;44.97
24892;BME280;12954;50.688;10.908;2023-04-19T10:07:09;96211.31;;;5.77;45.19
24892;BME280;12954;50.688;10.908;2023-04-19T10:09:41;96239.06;;;6.34;42.90
24892;BME280;12954;50.688;10.908;2023-04-19T10:12:22;96230.47;;;6.32;42.85
24892;BME280;12954;50.688;10.908;2023-04-19T10:14:55;96222.19;;;6.34;43.57
24892;BME280;12954;50.688;10.908;2023-04-19T10:17:24;96231.25;;;6.73;41.73
24892;BME280;12954;50.688;10.908;2023-04-19T10:20:00;96221.81;;;6.42;43.32
24892;BME280;12954;50.688;10.908;2023-04-19T10:22:33;96219.19;;;6.58;42.43
24892;BME280;12954;50.688;10.908;2023-04-19T10:25:11;96204.00;;;6.36;43.46
24892;BME280;12954;50.688;10.908;2023-04-19T10:27:40;96225.72;;;6.62;43.18
24892;BME280;12954;50.688;10.908;2023-04-19T10:30:19;96238.34;;;6.79;39.78
24892;BME280;12954;50.688;10.908;2023-04-19T10:32:51;96210.09;;;6.59;40.25
24892;BME280;12954;50.688;10.908;2023-04-19T10:35:24;96190.44;;;6.42;41.98
24892;BME280;12954;50.688;10.908;2023-04-19T10:38:05;96194.50;;;6.56;42.83
24892;BME280;12954;50.688;10.908;2023-04-19T10:40:54;96187.72;;;6.65;43.75
24892;BME280;12954;50.688;10.908;2023-04-19T10:43:23;96186.72;;;6.72;44.25
24892;BME280;12954;50.688;10.908;2023-04-19T10:45:52;96140.09;;;6.73;41.71
24892;BME280;12954;50.688;10.908;2023-04-19T10:48:38;96186.84;;;6.93;42.66
24892;BME280;12954;50.688;10.908;2023-04-19T10:51:15;96194.41;;;7.13;40.47
24892;BME280;12954;50.688;10.908;2023-04-19T10:53:47;96161.88;;;6.93;40.65
24892;BME280;12954;50.688;10.908;2023-04-19T10:56:17;96191.66;;;7.08;41.38
24892;BME280;12954;50.688;10.908;2023-04-19T10:59:10;96176.41;;;7.42;39.37
24892;BME280;12954;50.688;10.908;2023-04-19T11:01:42;96177.03;;;7.15;41.20
24892;BME280;12954;50.688;10.908;2023-04-19T11:04:13;96121.25;;;7.01;41.79
24892;BME280;12954;50.688;10.908;2023-04-19T11:07:01;96166.94;;;7.56;42.35
24892;BME280;12954;50.688;10.908;2023-04-19T11:09:31;96070.88;;;7.03;42.40
24892;BME280;12954;50.688;10.908;2023-04-19T11:12:01;96166.78;;;7.46;42.74
24892;BME280;12954;50.688;10.908;2023-04-19T11:14:32;96166.63;;;7.52;42.50
24892;BME280;12954;50.688;10.908;2023-04-19T11:17:03;96150.00;;;7.55;42.52
24892;BME280;12954;50.688;10.908;2023-04-19T11:19:32;96160.56;;;7.78;40.45
24892;BME280;12954;50.688;10.908;2023-04-19T11:22:01;96155.63;;;7.70;40.13
24892;BME280;12954;50.688;10.908;2023-04-19T11:24:30;96150.81;;;7.56;40.21
24892;BME280;12954;50.688;10.908;2023-04-19T11:26:59;96144.34;;;7.35;40.15
24892;BME280;12954;50.688;10.908;2023-04-19T11:29:27;96135.00;;;7.21;41.34
24892;BME280;12954;50.688;10.908;2023-04-19T11:31:58;96135.53;;;7.56;41.32
24892;BME280;12954;50.688;10.908;2023-04-19T11:34:28;96143.16;;;7.64;40.60
24892;BME280;12954;50.688;10.908;2023-04-19T11:36:57;96113.63;;;7.48;40.12
24892;BME280;12954;50.688;10.908;2023-04-19T11:39:27;96137.16;;;7.57;41.29
24892;BME280;12954;50.688;10.908;2023-04-19T11:41:55;96124.84;;;7.78;39.96
24892;BME280;12954;50.688;10.908;2023-04-19T11:44:25;96107.69;;;7.62;39.84
24892;BME280;12954;50.688;10.908;2023-04-19T11:46:58;96032.50;;;7.02;39.90
24892;BME280;12954;50.688;10.908;2023-04-19T11:49:27;96119.44;;;7.56;39.91
24892;BME280;12954;50.688;10.908;2023-04-19T11:51:57;96005.22;;;6.72;38.99
24892;BME280;12954;50.688;10.908;2023-04-19T11:54:30;96121.41;;;7.27;39.95
24892;BME280;12954;50.688;10.908;2023-04-19T11:57:00;96120.25;;;7.40;39.70
24892;BME280;12954;50.688;10.908;2023-04-19T11:59:31;96114.84;;;7.57;39.37
24892;BME280;12954;50.688;10.908;2023-04-19T12:02:07;96097.38;;;7.54;40.06
24892;BME280;12954;50.688;10.908;2023-04-19T12:04:36;96087.88;;;7.68;40.39
24892;BME280;12954;50.688;10.908;2023-04-19T12:07:05;96053.31;;;7.50;40.93
24892;BME280;12954;50.688;10.908;2023-04-19T12:09:35;96101.28;;;8.07;39.65
24892;BME280;12954;50.688;10.908;2023-04-19T12:12:04;96080.91;;;7.67;40.86
24892;BME280;12954;50.688;10.908;2023-04-19T12:14:33;96098.53;;;8.02;39.72
24892;BME280;12954;50.688;10.908;2023-04-19T12:17:11;96109.28;;;8.02;39.25
24892;BME280;12954;50.688;10.908;2023-04-19T12:19:43;96103.78;;;7.70;40.10
24892;BME280;12954;50.688;10.908;2023-04-19T12:22:13;96103.88;;;7.97;39.36
24892;BME280;12954;50.688;10.908;2023-04-19T12:24:43;96092.63;;;7.78;40.19
24892;BME280;12954;50.688;10.908;2023-04-19T12:27:15;95952.78;;;7.19;39.27
24892;BME280;12954;50.688;10.908;2023-04-19T12:29:44;96065.31;;;7.86;39.85
24892;BME280;12954;50.688;10.908;2023-04-19T12:32:13;96098.50;;;7.97;40.17
24892;BME280;12954;50.688;10.908;2023-04-19T12:34:42;96085.41;;;8.27;39.51
24892;BME280;12954;50.688;10.908;2023-04-19T12:37:10;96074.66;;;8.27;38.71
24892;BME280;12954;50.688;10.908;2023-04-19T12:39:38;96092.03;;;8.19;38.85
24892;BME280;12954;50.688;10.908;2023-04-19T12:42:08;96063.56;;;7.75;39.58
24892;BME280;12954;50.688;10.908;2023-04-19T12:44:37;96074.06;;;7.76;39.77
24892;BME280;12954;50.688;10.908;2023-04-19T12:47:05;96097.09;;;7.72;39.42
24892;BME280;12954;50.688;10.908;2023-04-19T12:49:34;96089.09;;;7.77;38.59
24892;BME280;12954;50.688;10.908;2023-04-19T12:52:05;95994.91;;;7.19;38.41
24892;BME280;12954;50.688;10.908;2023-04-19T12:54:33;96073.19;;;7.54;39.17
24892;BME280;12954;50.688;10.908;2023-04-19T12:57:02;96011.75;;;7.36;39.17
24892;BME280;12954;50.688;10.908;2023-04-19T12:59:32;96077.75;;;7.70;40.28
24892;BME280;12954;50.688;10.908;2023-04-19T13:02:00;96085.25;;;7.90;40.02
24892;BME280;12954;50.688;10.908;2023-04-19T13:04:29;96083.31;;;7.86;40.38
24892;BME280;12954;50.688;10.908;2023-04-19T13:06:57;96088.97;;;7.67;40.41
24892;BME280;12954;50.688;10.908;2023-04-19T13:09:26;96086.06;;;7.52;40.83
24892;BME280;12954;50.688;10.908;2023-04-19T13:11:55;96067.63;;;7.39;40.78
24892;BME280;12954;50.688;10.908;2023-04-19T13:14:25;96100.06;;;7.54;40.15
24892;BME280;12954;50.688;10.908;2023-04-19T13:16:56;96084.03;;;7.21;41.22